Terminal Aerodrome Forecast
Issued by NWS

Current Version | Previous Version | Graphics & Text | Print | Product List | Glossary On
Versions: 1 2 3 4 5 6 7 8 9 10 11 12 13 14 15 16 17 18 19 20 21 22 23
000
FTUS41 KPBZ 270300 AAB
TAFHLG
TAF AMD
KHLG 270355Z 2704/2724 14003KT 1/2SM FG OVC005
     FM270600 33003KT 3SM BR OVC010
     FM271600 30010KT P6SM OVC025=

USA.gov is the U.S. government's official web portal to all federal, state and local government web resources and services.